createdAt,value
2019-01-31T00:01:44.797Z,414.50
2019-01-31T00:04:31.304Z,395.50
2019-01-31T00:07:05.711Z,406.03
2019-01-31T00:09:43.380Z,437.97
2019-01-31T00:12:15.222Z,447.10
2019-01-31T00:14:52.482Z,451.57
2019-01-31T00:17:27.275Z,491.00
2019-01-31T00:20:14.187Z,484.30
2019-01-31T00:22:48.471Z,499.90
2019-01-31T00:25:23.132Z,505.70
2019-01-31T00:28:04.559Z,518.30
2019-01-31T00:30:47.640Z,514.00
2019-01-31T00:33:40.811Z,512.07
2019-01-31T00:36:33.558Z,514.67
2019-01-31T00:39:11.005Z,504.13
2019-01-31T00:41:59.145Z,508.07
2019-01-31T00:44:48.945Z,499.30
2019-01-31T00:47:35.457Z,491.67
2019-01-31T00:50:41.957Z,493.43
2019-01-31T00:53:22.892Z,494.77
2019-01-31T00:56:26.363Z,477.43
2019-01-31T00:59:16.072Z,449.27
2019-01-31T01:02:05.935Z,482.10
2019-01-31T01:04:46.475Z,433.73
2019-01-31T01:07:20.988Z,417.10
2019-01-31T01:10:04.570Z,429.47
2019-01-31T01:12:48.331Z,443.33
2019-01-31T01:15:34.956Z,429.67
2019-01-31T01:18:24.237Z,418.37
2019-01-31T01:20:58.817Z,405.00
2019-01-31T01:23:33.208Z,413.77
2019-01-31T01:26:20.032Z,396.47
2019-01-31T01:29:26.060Z,397.13
2019-01-31T01:32:24.495Z,395.27
2019-01-31T01:35:01.323Z,411.47
2019-01-31T01:37:32.372Z,410.97
2019-01-31T01:40:04.101Z,410.20
2019-01-31T01:42:47.859Z,395.90
2019-01-31T01:45:34.325Z,403.67
2019-01-31T01:48:11.603Z,398.30
2019-01-31T01:50:46.132Z,409.57
2019-01-31T01:53:30.193Z,397.07
2019-01-31T01:56:07.764Z,407.53
2019-01-31T01:58:48.242Z,400.80
2019-01-31T02:01:22.540Z,398.47
2019-01-31T02:03:57.162Z,412.63
2019-01-31T02:06:35.136Z,401.87
2019-01-31T02:09:30.058Z,417.13
2019-01-31T02:12:04.331Z,406.33
2019-01-31T02:14:52.526Z,424.47
2019-01-31T02:17:24.442Z,430.10
2019-01-31T02:20:22.025Z,425.13
2019-01-31T02:22:59.575Z,422.73
2019-01-31T02:25:31.330Z,421.00
2019-01-31T02:28:03.084Z,438.57
2019-01-31T02:31:07.818Z,435.80
2019-01-31T02:34:12.646Z,442.67
2019-01-31T02:36:50.647Z,431.17
2019-01-31T02:39:43.133Z,451.00
2019-01-31T02:42:16.236Z,453.60
2019-01-31T02:45:08.467Z,456.67
2019-01-31T02:47:45.222Z,425.47
2019-01-31T02:50:22.967Z,435.27
2019-01-31T02:53:14.408Z,437.63
2019-01-31T02:55:48.895Z,396.10
2019-01-31T02:58:29.358Z,428.30
2019-01-31T03:01:03.684Z,440.03
2019-01-31T03:03:47.375Z,437.10
2019-01-31T03:06:30.411Z,403.67
2019-01-31T03:09:18.746Z,439.73
2019-01-31T03:11:50.462Z,426.77
2019-01-31T03:14:22.248Z,425.90
2019-01-31T03:17:13.376Z,370.77
2019-01-31T03:19:50.633Z,398.60
2019-01-31T03:22:22.475Z,421.43
2019-01-31T03:25:15.312Z,364.80
2019-01-31T03:28:20.591Z,332.10
2019-01-31T03:31:14.812Z,304.70
2019-01-31T03:33:56.232Z,317.27
2019-01-31T03:36:30.834Z,329.80
2019-01-31T03:39:18.937Z,363.80
2019-01-31T03:41:55.934Z,288.87
2019-01-31T03:44:36.300Z,316.90
2019-01-31T03:47:10.842Z,300.20
2019-01-31T03:49:51.482Z,328.27
2019-01-31T03:52:38.045Z,382.13
2019-01-31T03:55:27.857Z,369.30
2019-01-31T03:58:16.039Z,377.97
2019-01-31T04:01:10.388Z,405.10
2019-01-31T04:03:57.234Z,375.77
2019-01-31T04:06:25.701Z,372.40
2019-01-31T04:08:54.178Z,368.27
2019-01-31T04:11:22.660Z,381.23
2019-01-31T04:13:51.122Z,393.63
2019-01-31T04:16:19.812Z,406.00
2019-01-31T04:18:48.495Z,394.00
2019-01-31T04:21:16.979Z,405.27
2019-01-31T04:23:45.383Z,392.00
2019-01-31T04:26:14.019Z,394.17
2019-01-31T04:28:42.437Z,400.93
2019-01-31T04:31:10.837Z,397.17
2019-01-31T04:33:39.270Z,399.80
2019-01-31T04:36:08.967Z,398.93
2019-01-31T04:38:37.373Z,387.13
2019-01-31T04:41:05.800Z,390.73
2019-01-31T04:43:34.277Z,379.00
2019-01-31T04:46:02.680Z,395.00
2019-01-31T04:48:31.257Z,386.03
2019-01-31T04:50:59.657Z,397.40
2019-01-31T04:53:28.342Z,378.87
2019-01-31T04:55:56.982Z,361.63
2019-01-31T04:58:25.575Z,354.37
2019-01-31T05:00:54.148Z,366.33
2019-01-31T05:03:22.871Z,365.97
2019-01-31T05:05:51.284Z,370.73
2019-01-31T05:08:19.691Z,348.90
2019-01-31T05:10:48.146Z,349.83
2019-01-31T05:13:16.702Z,348.73
2019-01-31T05:15:45.267Z,325.73
2019-01-31T05:18:13.715Z,340.23
2019-01-31T05:20:42.243Z,359.03
2019-01-31T05:23:10.667Z,346.33
2019-01-31T05:25:39.151Z,352.03
2019-01-31T05:28:07.857Z,348.07
2019-01-31T05:30:36.336Z,361.03
2019-01-31T05:33:05.036Z,338.27
2019-01-31T05:35:33.798Z,354.67
2019-01-31T05:38:03.210Z,330.87
2019-01-31T05:40:31.679Z,340.47
2019-01-31T05:43:00.247Z,298.73
2019-01-31T05:45:28.664Z,265.17
2019-01-31T05:47:57.306Z,307.47
2019-01-31T05:50:25.877Z,317.83
2019-01-31T05:52:54.283Z,327.93
2019-01-31T05:55:22.770Z,342.63
2019-01-31T05:57:51.243Z,348.50
2019-01-31T06:00:23.421Z,285.53
2019-01-31T06:02:51.865Z,268.33
2019-01-31T06:05:20.539Z,309.73
2019-01-31T06:07:49.279Z,327.17
2019-01-31T06:10:17.798Z,291.03
2019-01-31T06:12:46.197Z,287.08
2019-01-31T06:15:18.980Z,241.23
2019-01-31T06:17:47.685Z,242.03
2019-01-31T06:20:19.586Z,232.67
2019-01-31T06:22:48.189Z,234.80
2019-01-31T06:25:17.003Z,232.07
2019-01-31T06:27:45.619Z,245.53
2019-01-31T06:30:16.504Z,291.20
2019-01-31T06:32:45.082Z,251.50
2019-01-31T06:35:13.832Z,195.83
2019-01-31T06:37:42.250Z,186.80
2019-01-31T06:40:14.319Z,192.67
2019-01-31T06:42:42.948Z,181.27
2019-01-31T06:45:14.764Z,181.63
2019-01-31T06:47:43.200Z,203.63
2019-01-31T06:50:11.614Z,222.97
2019-01-31T06:52:40.011Z,239.47
2019-01-31T06:55:10.427Z,217.97
2019-01-31T06:57:38.833Z,207.20
2019-01-31T07:00:16.118Z,227.90
2019-01-31T07:02:44.611Z,249.10
2019-01-31T07:05:13.160Z,239.73
2019-01-31T07:07:41.773Z,243.83
2019-01-31T07:10:24.695Z,234.00
2019-01-31T07:12:53.285Z,265.57
2019-01-31T07:15:21.939Z,237.93
2019-01-31T07:17:50.707Z,231.40
2019-01-31T07:20:19.194Z,219.27
2019-01-31T07:22:47.597Z,267.50
2019-01-31T07:25:18.895Z,258.57
2019-01-31T07:27:47.661Z,258.73
2019-01-31T07:30:18.244Z,236.10
2019-01-31T07:32:46.927Z,231.57
2019-01-31T07:35:15.948Z,266.40
2019-01-31T07:37:44.527Z,259.90
2019-01-31T07:40:16.144Z,272.00
2019-01-31T07:42:45.942Z,248.53
2019-01-31T07:45:17.859Z,228.40
2019-01-31T07:47:46.542Z,243.63
2019-01-31T07:50:17.222Z,230.97
2019-01-31T07:52:47.139Z,218.53
2019-01-31T07:55:15.544Z,184.40
2019-01-31T07:57:43.993Z,119.27
2019-01-31T08:00:20.754Z,118.50
2019-01-31T08:02:49.184Z,138.17
2019-01-31T08:05:22.801Z,151.17
2019-01-31T08:07:53.044Z,138.57
2019-01-31T08:10:27.319Z,159.57
2019-01-31T08:12:55.716Z,183.27
2019-01-31T08:15:24.126Z,168.77
2019-01-31T08:17:52.813Z,165.10
2019-01-31T08:20:21.207Z,166.67
2019-01-31T08:22:49.790Z,175.23
2019-01-31T08:25:25.561Z,209.30
2019-01-31T08:27:55.084Z,208.10
2019-01-31T08:30:26.263Z,219.23
2019-01-31T08:32:54.866Z,217.77
2019-01-31T08:35:23.274Z,218.20
2019-01-31T08:37:51.872Z,218.73
2019-01-31T08:40:20.392Z,205.70
2019-01-31T08:42:49.771Z,204.30
2019-01-31T08:45:18.442Z,216.67
2019-01-31T08:47:47.093Z,219.77
2019-01-31T08:50:18.187Z,209.40
2019-01-31T08:52:46.804Z,199.77
2019-01-31T08:55:15.519Z,206.50
2019-01-31T08:57:44.058Z,188.17
2019-01-31T09:00:24.214Z,168.33
2019-01-31T09:02:52.778Z,174.93
2019-01-31T09:05:21.511Z,182.03
2019-01-31T09:07:50.181Z,185.67
2019-01-31T09:10:28.406Z,162.23
2019-01-31T09:12:57.996Z,151.83
2019-01-31T09:15:26.665Z,146.33
2019-01-31T09:17:55.122Z,166.43
2019-01-31T09:20:38.925Z,160.23
2019-01-31T09:23:19.643Z,161.17
2019-01-31T09:26:13.984Z,160.80
2019-01-31T09:29:06.279Z,156.73
2019-01-31T09:32:02.232Z,148.87
2019-01-31T09:34:34.096Z,143.03
2019-01-31T09:37:06.228Z,127.57
2019-01-31T09:39:46.982Z,110.93
2019-01-31T09:42:33.695Z,100.13
2019-01-31T09:45:18.209Z,114.53
2019-01-31T09:47:52.856Z,110.60
2019-01-31T09:50:39.911Z,104.93
2019-01-31T09:53:20.147Z,114.77
2019-01-31T09:56:12.839Z,129.10
2019-01-31T09:59:04.220Z,94.77
2019-01-31T10:01:36.220Z,96.90
2019-01-31T10:04:17.260Z,96.13
2019-01-31T10:07:05.274Z,91.17
2019-01-31T10:09:37.021Z,84.37
2019-01-31T10:12:08.846Z,77.70
2019-01-31T10:15:00.946Z,59.67
2019-01-31T10:17:50.365Z,60.07
2019-01-31T10:20:24.678Z,58.87
2019-01-31T10:23:02.388Z,45.93
2019-01-31T10:25:56.925Z,47.70
2019-01-31T10:28:53.662Z,74.80
2019-01-31T10:31:28.185Z,48.23
2019-01-31T10:34:06.126Z,34.03
2019-01-31T10:36:43.400Z,44.83
2019-01-31T10:39:35.581Z,34.00
2019-01-31T10:42:24.118Z,39.03
2019-01-31T10:45:13.747Z,31.73
2019-01-31T10:47:55.567Z,22.90
2019-01-31T10:50:30.058Z,46.67
2019-01-31T10:53:35.362Z,24.63
2019-01-31T10:56:09.931Z,16.47
2019-01-31T10:58:56.411Z,11.87
2019-01-31T11:01:55.203Z,13.83
2019-01-31T11:04:43.649Z,19.43
2019-01-31T11:07:24.476Z,13.77
2019-01-31T11:10:02.002Z,12.73
2019-01-31T11:12:39.734Z,10.33
2019-01-31T11:15:41.954Z,8.80
2019-01-31T11:18:22.739Z,7.20
2019-01-31T11:21:21.856Z,7.33
2019-01-31T11:23:56.254Z,6.67
2019-01-31T11:26:53.138Z,10.40
2019-01-31T11:29:41.544Z,7.63
2019-01-31T11:32:30.549Z,6.67
2019-01-31T11:35:11.148Z,10.67
2019-01-31T11:37:57.648Z,7.07
2019-01-31T11:40:35.537Z,7.80
2019-01-31T11:43:31.450Z,8.87
2019-01-31T11:46:25.665Z,7.53
2019-01-31T11:49:07.455Z,8.30
2019-01-31T11:51:51.235Z,12.07
2019-01-31T11:54:22.908Z,11.53
2019-01-31T11:57:06.811Z,12.43
2019-01-31T11:59:39.459Z,11.80
2019-01-31T12:02:06.204Z,9.27
2019-01-31T12:04:34.845Z,13.30
2019-01-31T12:07:03.311Z,13.43
2019-01-31T12:09:31.895Z,12.50
2019-01-31T12:12:00.568Z,9.33
2019-01-31T12:14:29.226Z,12.30
2019-01-31T12:16:57.996Z,15.07
2019-01-31T12:19:26.637Z,11.43
2019-01-31T12:21:55.541Z,11.90
2019-01-31T12:24:24.313Z,14.17
2019-01-31T12:26:52.711Z,12.57
2019-01-31T12:29:21.485Z,12.17
2019-01-31T12:31:49.972Z,12.93
2019-01-31T12:34:18.688Z,15.33
2019-01-31T12:36:47.288Z,13.60
2019-01-31T12:39:16.040Z,18.83
2019-01-31T12:41:46.203Z,15.73
2019-01-31T12:44:14.643Z,16.93
2019-01-31T12:46:43.123Z,16.40
2019-01-31T12:49:11.592Z,13.67
2019-01-31T12:51:40.542Z,13.03
2019-01-31T12:54:09.242Z,12.97
2019-01-31T12:56:37.618Z,14.07
2019-01-31T12:59:06.620Z,16.47
2019-01-31T13:01:35.172Z,14.27
2019-01-31T13:04:03.729Z,15.47
2019-01-31T13:06:32.660Z,13.13
2019-01-31T13:09:01.463Z,42.73
2019-01-31T13:11:29.923Z,16.27
2019-01-31T13:13:58.463Z,18.80
2019-01-31T13:16:27.023Z,16.57
2019-01-31T13:18:55.416Z,14.30
2019-01-31T13:21:24.137Z,15.93
2019-01-31T13:23:52.597Z,19.40
2019-01-31T13:26:21.295Z,15.63
2019-01-31T13:28:50.378Z,21.40
2019-01-31T13:31:19.025Z,16.13
2019-01-31T13:33:47.909Z,17.30
2019-01-31T13:36:16.515Z,16.20
2019-01-31T13:38:45.286Z,16.27
2019-01-31T13:41:14.177Z,15.47
2019-01-31T13:43:43.604Z,16.00
2019-01-31T13:46:12.532Z,16.57
2019-01-31T13:48:41.183Z,16.37
2019-01-31T13:51:11.816Z,18.70
2019-01-31T13:53:41.308Z,17.13
2019-01-31T13:56:10.016Z,17.03
2019-01-31T13:58:38.635Z,14.87
2019-01-31T14:01:07.431Z,12.80
2019-01-31T14:03:36.262Z,15.03
2019-01-31T14:06:07.912Z,12.87
2019-01-31T14:08:36.785Z,12.10
2019-01-31T14:11:05.757Z,12.93
2019-01-31T14:13:35.037Z,14.10
2019-01-31T14:16:04.098Z,15.80
2019-01-31T14:18:32.761Z,22.77
2019-01-31T14:21:01.591Z,23.03
2019-01-31T14:23:30.376Z,34.23
2019-01-31T14:25:59.554Z,34.00
2019-01-31T14:28:31.601Z,21.87
2019-01-31T14:31:01.594Z,29.63
2019-01-31T14:33:30.099Z,22.17
2019-01-31T14:35:59.583Z,28.00
2019-01-31T14:38:28.684Z,24.87
2019-01-31T14:40:57.460Z,25.57
2019-01-31T14:43:25.889Z,21.30
2019-01-31T14:45:55.433Z,53.37
2019-01-31T14:48:23.883Z,41.93
2019-01-31T14:50:52.351Z,27.27
2019-01-31T14:53:20.989Z,62.23
2019-01-31T14:55:50.295Z,95.87
2019-01-31T14:58:20.066Z,78.17
2019-01-31T15:00:49.511Z,72.00
2019-01-31T15:03:19.815Z,73.53
2019-01-31T15:05:48.256Z,54.73
2019-01-31T15:08:16.863Z,55.83
2019-01-31T15:10:46.046Z,58.63
2019-01-31T15:13:15.661Z,38.63
2019-01-31T15:15:44.139Z,43.20
2019-01-31T15:18:12.679Z,44.27
2019-01-31T15:20:42.908Z,60.27
2019-01-31T15:23:11.999Z,61.60
2019-01-31T15:25:40.802Z,59.37
2019-01-31T15:28:09.588Z,61.93
2019-01-31T15:30:40.203Z,59.87
2019-01-31T15:33:12.849Z,70.93
2019-01-31T15:35:41.801Z,80.20
2019-01-31T15:38:10.206Z,65.97
2019-01-31T15:40:41.604Z,69.90
2019-01-31T15:43:10.113Z,73.13
2019-01-31T15:45:38.777Z,73.30
2019-01-31T15:48:10.560Z,67.40
2019-01-31T15:50:39.307Z,65.67
2019-01-31T15:53:07.714Z,58.73
2019-01-31T15:55:36.550Z,55.00
2019-01-31T15:58:06.964Z,42.90
2019-01-31T16:00:44.937Z,39.57
2019-01-31T16:03:15.733Z,37.73
2019-01-31T16:05:44.323Z,38.23
2019-01-31T16:08:13.152Z,39.83
2019-01-31T16:10:44.951Z,44.33
2019-01-31T16:13:13.829Z,58.03
2019-01-31T16:15:42.785Z,58.10
2019-01-31T16:18:12.095Z,41.37
2019-01-31T16:20:40.564Z,49.53
2019-01-31T16:23:09.509Z,47.97
2019-01-31T16:25:38.535Z,126.43
2019-01-31T16:28:07.098Z,91.67
2019-01-31T16:30:35.954Z,107.90
2019-01-31T16:33:05.011Z,151.80
2019-01-31T16:35:34.881Z,186.00
2019-01-31T16:38:03.435Z,175.03
2019-01-31T16:40:31.903Z,146.47
2019-01-31T16:43:01.174Z,165.80
2019-01-31T16:45:29.664Z,211.23
2019-01-31T16:47:58.504Z,262.00
2019-01-31T16:50:27.263Z,252.00
2019-01-31T16:52:56.026Z,250.40
2019-01-31T16:55:29.043Z,263.53
2019-01-31T16:57:57.882Z,303.43
2019-01-31T17:00:32.558Z,279.43
2019-01-31T17:03:01.343Z,377.70
2019-01-31T17:05:31.681Z,279.20
2019-01-31T17:08:00.336Z,217.20
2019-01-31T17:10:28.753Z,162.17
2019-01-31T17:12:57.293Z,228.40
2019-01-31T17:15:25.892Z,217.77
2019-01-31T17:17:55.003Z,318.27
2019-01-31T17:20:29.388Z,387.43
2019-01-31T17:22:58.127Z,260.80
2019-01-31T17:25:26.740Z,237.87
2019-01-31T17:27:55.363Z,200.07
2019-01-31T17:30:26.418Z,192.47
2019-01-31T17:32:56.149Z,230.57
2019-01-31T17:35:24.852Z,230.83
2019-01-31T17:37:53.432Z,283.90
2019-01-31T17:40:27.618Z,232.90
2019-01-31T17:42:56.562Z,286.37
2019-01-31T17:45:30.357Z,295.63
2019-01-31T17:47:55.740Z,272.03
2019-01-31T17:50:24.987Z,486.70
2019-01-31T17:52:54.487Z,392.47
2019-01-31T17:55:25.050Z,333.10
2019-01-31T17:57:53.668Z,284.63
2019-01-31T18:00:26.359Z,254.90
2019-01-31T18:02:55.792Z,215.60
2019-01-31T18:05:24.762Z,204.23
2019-01-31T18:07:53.350Z,234.60
2019-01-31T18:10:23.460Z,355.17
2019-01-31T18:12:51.958Z,331.30
2019-01-31T18:15:21.104Z,284.73
2019-01-31T18:17:50.540Z,363.87
2019-01-31T18:20:23.605Z,371.47
2019-01-31T18:22:53.403Z,350.40
2019-01-31T18:25:22.490Z,355.93
2019-01-31T18:27:53.047Z,347.10
2019-01-31T18:30:23.859Z,260.87
2019-01-31T18:32:53.012Z,291.90
2019-01-31T18:35:21.743Z,263.43
2019-01-31T18:37:51.016Z,277.57
2019-01-31T18:40:22.060Z,263.10
2019-01-31T18:42:50.713Z,273.70
2019-01-31T18:45:24.374Z,314.30
2019-01-31T18:47:53.078Z,339.23
2019-01-31T18:50:27.749Z,411.87
2019-01-31T18:52:56.504Z,355.00
2019-01-31T18:55:25.504Z,317.23
2019-01-31T18:57:54.697Z,344.00
2019-01-31T19:00:31.461Z,371.07
2019-01-31T19:02:59.922Z,313.27
2019-01-31T19:05:29.607Z,274.93
2019-01-31T19:07:58.140Z,307.67
2019-01-31T19:10:26.827Z,300.23
2019-01-31T19:12:55.393Z,290.63
2019-01-31T19:15:25.783Z,294.70
2019-01-31T19:18:04.511Z,289.17
2019-01-31T19:20:30.472Z,287.20
2019-01-31T19:23:00.991Z,276.13
2019-01-31T19:25:32.141Z,252.40
2019-01-31T19:27:59.979Z,251.73
2019-01-31T19:30:30.999Z,206.47
2019-01-31T19:33:00.029Z,218.90
2019-01-31T19:35:28.577Z,229.97
2019-01-31T19:38:02.005Z,211.00
2019-01-31T19:40:32.861Z,174.63
2019-01-31T19:43:01.320Z,163.47
2019-01-31T19:45:32.925Z,168.77
2019-01-31T19:48:01.482Z,181.93
2019-01-31T19:50:30.132Z,173.47
2019-01-31T19:52:58.929Z,161.97
2019-01-31T19:55:27.382Z,162.40
2019-01-31T19:57:55.899Z,155.70
2019-01-31T20:00:26.580Z,182.40
2019-01-31T20:02:55.733Z,163.73
2019-01-31T20:05:24.836Z,179.90
2019-01-31T20:07:54.517Z,179.10
2019-01-31T20:10:29.018Z,161.27
2019-01-31T20:12:57.631Z,139.77
2019-01-31T20:15:26.083Z,115.10
2019-01-31T20:17:54.779Z,114.23
2019-01-31T20:20:26.011Z,104.90
2019-01-31T20:22:55.502Z,289.70
2019-01-31T20:25:25.821Z,258.07
2019-01-31T20:27:54.549Z,282.77
2019-01-31T20:30:25.584Z,273.17
2019-01-31T20:32:54.574Z,254.40
2019-01-31T20:35:23.820Z,291.47
2019-01-31T20:37:52.568Z,301.70
2019-01-31T20:40:32.765Z,296.17
2019-01-31T20:43:01.178Z,286.13
2019-01-31T20:45:30.153Z,263.60
2019-01-31T20:47:58.863Z,244.43
2019-01-31T20:50:36.056Z,253.53
2019-01-31T20:53:05.123Z,227.23
2019-01-31T20:55:33.709Z,214.10
2019-01-31T20:58:02.191Z,177.73
2019-01-31T21:00:34.102Z,202.47
2019-01-31T21:03:03.286Z,222.70
2019-01-31T21:05:31.688Z,216.33
2019-01-31T21:08:00.189Z,243.07
2019-01-31T21:10:29.633Z,251.30
2019-01-31T21:12:58.044Z,262.70
2019-01-31T21:15:26.571Z,278.73
2019-01-31T21:17:55.566Z,301.97
2019-01-31T21:20:26.505Z,311.77
2019-01-31T21:22:55.669Z,329.60
2019-01-31T21:25:24.239Z,394.63
2019-01-31T21:27:52.776Z,309.13
2019-01-31T21:30:36.668Z,304.60
2019-01-31T21:33:05.382Z,308.90
2019-01-31T21:35:33.921Z,333.77
2019-01-31T21:38:02.769Z,267.20
2019-01-31T21:40:33.292Z,239.97
2019-01-31T21:43:01.843Z,202.00
2019-01-31T21:45:30.562Z,228.60
2019-01-31T21:47:59.073Z,178.63
2019-01-31T21:50:29.788Z,191.57
2019-01-31T21:52:58.299Z,183.33
2019-01-31T21:55:26.699Z,159.23
2019-01-31T21:57:55.210Z,184.87
2019-01-31T22:00:26.219Z,203.33
2019-01-31T22:02:54.733Z,190.47
2019-01-31T22:05:23.127Z,190.80
2019-01-31T22:07:51.648Z,203.67
2019-01-31T22:10:20.990Z,197.60
2019-01-31T22:12:50.360Z,182.53
2019-01-31T22:15:27.478Z,187.73
2019-01-31T22:17:59.817Z,202.80
2019-01-31T22:20:25.972Z,244.57
2019-01-31T22:22:54.412Z,215.87
2019-01-31T22:25:23.656Z,259.30
2019-01-31T22:27:52.197Z,207.40
2019-01-31T22:30:26.554Z,300.13
2019-01-31T22:32:55.033Z,239.93
2019-01-31T22:35:23.419Z,300.13
2019-01-31T22:37:51.865Z,326.27
2019-01-31T22:40:20.272Z,301.00
2019-01-31T22:42:48.841Z,211.00
2019-01-31T22:45:22.894Z,209.97
2019-01-31T22:47:51.537Z,248.80
2019-01-31T22:50:21.879Z,214.10
2019-01-31T22:52:50.400Z,269.83
2019-01-31T22:55:21.028Z,151.33
2019-01-31T22:57:49.416Z,238.00
2019-01-31T23:00:28.451Z,210.40
2019-01-31T23:02:56.924Z,276.93
2019-01-31T23:05:25.359Z,225.87
2019-01-31T23:07:53.795Z,216.97
2019-01-31T23:10:22.354Z,200.83
2019-01-31T23:12:50.809Z,189.70
2019-01-31T23:15:20.326Z,217.13
2019-01-31T23:17:48.787Z,204.57
2019-01-31T23:20:17.291Z,191.07
2019-01-31T23:22:46.198Z,182.53
2019-01-31T23:25:14.774Z,158.77
2019-01-31T23:27:43.339Z,142.30
2019-01-31T23:30:14.565Z,157.67
2019-01-31T23:32:43.019Z,166.37
2019-01-31T23:35:11.503Z,224.73
2019-01-31T23:37:40.056Z,200.47
2019-01-31T23:40:10.890Z,241.00
2019-01-31T23:42:39.295Z,168.20
2019-01-31T23:45:15.904Z,154.07
2019-01-31T23:47:48.789Z,188.17
2019-01-31T23:50:14.455Z,215.30
2019-01-31T23:52:42.991Z,214.77
2019-01-31T23:55:13.587Z,211.93
2019-01-31T23:57:42.110Z,244.77
